BOX914 EDDP-EDDF
Flight info
| Callsign | BOX914 |
|---|---|
| Flight time | 0h 32m |
| Altitude | 30000 |
| Route | NEVKO2S NEVKO Q243 BAMKI DCT DEMAB DCT KERAX KERAX5A |
| Aircraft | B77L/H-SDE1E2E3FGHIJ2J3J4J5M1RWXY/LB1D1 |
Departure
| Time | 2026-04-14 06:25 |
|---|---|
| Airport | Leipzig/Halle Airport (EDDP) |
Arrival
| Time | 2026-04-14 06:57 |
|---|---|
| Airport | Frankfurt Main Airport (EDDF) |
| Time | Latitude | Longitude | Altitude | Speed | Heading |
|---|---|---|---|---|---|
| 2026-04-14 06:13 | 51.41008 | 12.24973 | 473 ft | 0 kts | 265° |
| 2026-04-14 06:19 | 51.41009 | 12.24999 | 469 ft | 4 kts | 266° |
| 2026-04-14 06:19 | 51.41010 | 12.25043 | 468 ft | 4 kts | 272° |
| 2026-04-14 06:19 | 51.41006 | 12.25084 | 466 ft | 4 kts | 298° |
| 2026-04-14 06:20 | 51.40994 | 12.25104 | 465 ft | 1 kts | 355° |
| 2026-04-14 06:22 | 51.40996 | 12.25104 | 465 ft | 4 kts | 355° |
| 2026-04-14 06:22 | 51.41065 | 12.25095 | 468 ft | 12 kts | 356° |
| 2026-04-14 06:22 | 51.41121 | 12.25180 | 476 ft | 12 kts | 77° |
| 2026-04-14 06:23 | 51.41133 | 12.25387 | 471 ft | 24 kts | 86° |
| 2026-04-14 06:23 | 51.41144 | 12.25572 | 478 ft | 13 kts | 73° |
| 2026-04-14 06:23 | 51.41220 | 12.25624 | 475 ft | 13 kts | 358° |
| 2026-04-14 06:23 | 51.41307 | 12.25611 | 479 ft | 13 kts | 354° |
| 2026-04-14 06:24 | 51.41392 | 12.25584 | 475 ft | 13 kts | 322° |
| 2026-04-14 06:24 | 51.41396 | 12.25467 | 481 ft | 18 kts | 265° |
| 2026-04-14 06:24 | 51.41370 | 12.24909 | 481 ft | 88 kts | 265° |
| 2026-04-14 06:24 | 51.41306 | 12.23553 | 477 ft | 153 kts | 265° |
| 2026-04-14 06:25 | 51.41219 | 12.21690 | 941 ft | 166 kts | 267° |
| 2026-04-14 06:25 | 51.41139 | 12.19869 | 1854 ft | 165 kts | 270° |
| 2026-04-14 06:25 | 51.41057 | 12.18024 | 2506 ft | 176 kts | 269° |
| 2026-04-14 06:25 | 51.40963 | 12.15890 | 2825 ft | 208 kts | 268° |
| 2026-04-14 06:26 | 51.40843 | 12.13371 | 3233 ft | 237 kts | 267° |
| 2026-04-14 06:26 | 51.40710 | 12.10726 | 4217 ft | 246 kts | 266° |
| 2026-04-14 06:26 | 51.40566 | 12.07935 | 5231 ft | 257 kts | 265° |
| 2026-04-14 06:26 | 51.40413 | 12.05028 | 6320 ft | 265 kts | 264° |
| 2026-04-14 06:27 | 51.40256 | 12.02082 | 7461 ft | 267 kts | 264° |
| 2026-04-14 06:27 | 51.40096 | 11.99088 | 8554 ft | 273 kts | 264° |
| 2026-04-14 06:27 | 51.39879 | 11.96056 | 9537 ft | 277 kts | 255° |
| 2026-04-14 06:27 | 51.39056 | 11.93250 | 10402 ft | 284 kts | 234° |
| 2026-04-14 06:28 | 51.37632 | 11.90898 | 10839 ft | 308 kts | 216° |
| 2026-04-14 06:28 | 51.35710 | 11.89009 | 11124 ft | 341 kts | 208° |
| 2026-04-14 06:28 | 51.33552 | 11.87173 | 11824 ft | 358 kts | 208° |
| 2026-04-14 06:28 | 51.31332 | 11.85260 | 12825 ft | 365 kts | 209° |
| 2026-04-14 06:29 | 51.29102 | 11.83257 | 13932 ft | 369 kts | 210° |
| 2026-04-14 06:29 | 51.26866 | 11.81204 | 14897 ft | 373 kts | 210° |
| 2026-04-14 06:29 | 51.24626 | 11.79065 | 15829 ft | 378 kts | 213° |
| 2026-04-14 06:29 | 51.22487 | 11.76576 | 16734 ft | 383 kts | 217° |
| 2026-04-14 06:30 | 51.20392 | 11.73896 | 17642 ft | 389 kts | 218° |
| 2026-04-14 06:30 | 51.18280 | 11.71141 | 18499 ft | 395 kts | 218° |
| 2026-04-14 06:30 | 51.16130 | 11.68358 | 19301 ft | 400 kts | 218° |
| 2026-04-14 06:30 | 51.13975 | 11.65605 | 20113 ft | 404 kts | 218° |
| 2026-04-14 06:31 | 51.11761 | 11.62810 | 20917 ft | 409 kts | 218° |
| 2026-04-14 06:31 | 51.09513 | 11.59998 | 21695 ft | 414 kts | 218° |
| 2026-04-14 06:31 | 51.07230 | 11.57156 | 22456 ft | 419 kts | 218° |
| 2026-04-14 06:31 | 51.04919 | 11.54288 | 23222 ft | 424 kts | 218° |
| 2026-04-14 06:32 | 51.02578 | 11.51389 | 23918 ft | 429 kts | 218° |
| 2026-04-14 06:32 | 51.00213 | 11.48462 | 24557 ft | 433 kts | 217° |
| 2026-04-14 06:32 | 50.97830 | 11.45517 | 25191 ft | 437 kts | 217° |
| 2026-04-14 06:32 | 50.95423 | 11.42545 | 25822 ft | 440 kts | 217° |
| 2026-04-14 06:33 | 50.92997 | 11.39554 | 26438 ft | 444 kts | 217° |
| 2026-04-14 06:33 | 50.90546 | 11.36534 | 27079 ft | 447 kts | 217° |
| 2026-04-14 06:33 | 50.88092 | 11.33516 | 27923 ft | 445 kts | 217° |
| 2026-04-14 06:34 | 50.83639 | 11.26890 | 29844 ft | 442 kts | 231° |
| 2026-04-14 06:34 | 50.81819 | 11.22929 | 30072 ft | 448 kts | 232° |
| 2026-04-14 06:34 | 50.78175 | 11.15022 | 30068 ft | 441 kts | 231° |
| 2026-04-14 06:35 | 50.74450 | 11.07374 | 30069 ft | 435 kts | 231° |
| 2026-04-14 06:35 | 50.71515 | 10.99192 | 29442 ft | 427 kts | 245° |
| 2026-04-14 06:36 | 50.70535 | 10.94794 | 28954 ft | 423 kts | 252° |
| 2026-04-14 06:36 | 50.69806 | 10.90324 | 28464 ft | 418 kts | 254° |
| 2026-04-14 06:36 | 50.69110 | 10.85896 | 27950 ft | 414 kts | 254° |
| 2026-04-14 06:36 | 50.68424 | 10.81514 | 27456 ft | 410 kts | 254° |
| 2026-04-14 06:37 | 50.67736 | 10.77171 | 26976 ft | 407 kts | 254° |
| 2026-04-14 06:37 | 50.67043 | 10.72862 | 26490 ft | 403 kts | 254° |
| 2026-04-14 06:37 | 50.66351 | 10.68605 | 26019 ft | 400 kts | 254° |
| 2026-04-14 06:37 | 50.65660 | 10.64387 | 25566 ft | 397 kts | 254° |
| 2026-04-14 06:38 | 50.65202 | 10.61604 | 25243 ft | 395 kts | 254° |
| 2026-04-14 06:38 | 50.64281 | 10.56029 | 24632 ft | 392 kts | 254° |
| 2026-04-14 06:38 | 50.63826 | 10.53289 | 24328 ft | 390 kts | 254° |
| 2026-04-14 06:38 | 50.63140 | 10.49156 | 23869 ft | 389 kts | 255° |
| 2026-04-14 06:39 | 50.62456 | 10.45050 | 23359 ft | 387 kts | 255° |
| 2026-04-14 06:39 | 50.61774 | 10.40961 | 22866 ft | 384 kts | 254° |
| 2026-04-14 06:39 | 50.61097 | 10.36909 | 22402 ft | 381 kts | 254° |
| 2026-04-14 06:39 | 50.60422 | 10.32885 | 21942 ft | 378 kts | 254° |
| 2026-04-14 06:40 | 50.59755 | 10.28911 | 21492 ft | 374 kts | 254° |
| 2026-04-14 06:40 | 50.59091 | 10.24967 | 21066 ft | 371 kts | 253° |
| 2026-04-14 06:40 | 50.58430 | 10.21052 | 20630 ft | 369 kts | 253° |
| 2026-04-14 06:40 | 50.57773 | 10.17165 | 20194 ft | 367 kts | 253° |
| 2026-04-14 06:41 | 50.57117 | 10.13295 | 19756 ft | 365 kts | 253° |
| 2026-04-14 06:41 | 50.56464 | 10.09451 | 19327 ft | 363 kts | 253° |
| 2026-04-14 06:41 | 50.55812 | 10.05620 | 18909 ft | 362 kts | 253° |
| 2026-04-14 06:41 | 50.55162 | 10.01802 | 18474 ft | 361 kts | 253° |
| 2026-04-14 06:42 | 50.54509 | 9.97991 | 17991 ft | 361 kts | 252° |
| 2026-04-14 06:42 | 50.53856 | 9.94186 | 17522 ft | 359 kts | 252° |
| 2026-04-14 06:42 | 50.53196 | 9.90407 | 17079 ft | 357 kts | 252° |
| 2026-04-14 06:42 | 50.52536 | 9.86660 | 16640 ft | 355 kts | 252° |
| 2026-04-14 06:43 | 50.51878 | 9.82925 | 16196 ft | 354 kts | 252° |
| 2026-04-14 06:43 | 50.51223 | 9.79210 | 15777 ft | 352 kts | 252° |
| 2026-04-14 06:43 | 50.50571 | 9.75519 | 15369 ft | 350 kts | 252° |
| 2026-04-14 06:43 | 50.49921 | 9.71839 | 14934 ft | 348 kts | 252° |
| 2026-04-14 06:44 | 50.49276 | 9.68187 | 14516 ft | 347 kts | 252° |
| 2026-04-14 06:44 | 50.48629 | 9.64544 | 14093 ft | 345 kts | 252° |
| 2026-04-14 06:44 | 50.47984 | 9.60922 | 13625 ft | 344 kts | 252° |
| 2026-04-14 06:44 | 50.47160 | 9.57480 | 13176 ft | 335 kts | 238° |
| 2026-04-14 06:45 | 50.45759 | 9.54637 | 12727 ft | 327 kts | 229° |
| 2026-04-14 06:45 | 50.44278 | 9.51918 | 12274 ft | 329 kts | 229° |
| 2026-04-14 06:45 | 50.42810 | 9.49175 | 11851 ft | 327 kts | 230° |
| 2026-04-14 06:45 | 50.41355 | 9.46436 | 11451 ft | 326 kts | 230° |
| 2026-04-14 06:46 | 50.38475 | 9.40987 | 10662 ft | 323 kts | 231° |
| 2026-04-14 06:46 | 50.37055 | 9.38295 | 10436 ft | 316 kts | 231° |
| 2026-04-14 06:46 | 50.35676 | 9.35682 | 10299 ft | 307 kts | 231° |
| 2026-04-14 06:47 | 50.34353 | 9.33174 | 10143 ft | 299 kts | 231° |
| 2026-04-14 06:47 | 50.33046 | 9.30697 | 10030 ft | 291 kts | 231° |
| 2026-04-14 06:47 | 50.31770 | 9.28282 | 9809 ft | 285 kts | 231° |
| 2026-04-14 06:47 | 50.30516 | 9.25909 | 9462 ft | 283 kts | 231° |
| 2026-04-14 06:48 | 50.29291 | 9.23596 | 9157 ft | 271 kts | 231° |
| 2026-04-14 06:48 | 50.28114 | 9.21374 | 8814 ft | 260 kts | 231° |
| 2026-04-14 06:48 | 50.26983 | 9.19240 | 8507 ft | 249 kts | 231° |
| 2026-04-14 06:48 | 50.25894 | 9.17187 | 8227 ft | 242 kts | 232° |
| 2026-04-14 06:49 | 50.24803 | 9.15129 | 7977 ft | 253 kts | 232° |
| 2026-04-14 06:49 | 50.23651 | 9.12957 | 7696 ft | 264 kts | 232° |
| 2026-04-14 06:49 | 50.22469 | 9.10734 | 7398 ft | 267 kts | 232° |
| 2026-04-14 06:49 | 50.21289 | 9.08517 | 7085 ft | 264 kts | 232° |
| 2026-04-14 06:50 | 50.20118 | 9.06320 | 6790 ft | 261 kts | 232° |
| 2026-04-14 06:50 | 50.18962 | 9.04147 | 6489 ft | 260 kts | 232° |
| 2026-04-14 06:50 | 50.17820 | 9.02009 | 6303 ft | 251 kts | 232° |
| 2026-04-14 06:50 | 50.16722 | 8.99955 | 6183 ft | 241 kts | 232° |
| 2026-04-14 06:51 | 50.15673 | 8.97997 | 6086 ft | 229 kts | 232° |
| 2026-04-14 06:51 | 50.14765 | 8.96050 | 5951 ft | 217 kts | 249° |
| 2026-04-14 06:51 | 50.14245 | 8.93853 | 5846 ft | 220 kts | 252° |
| 2026-04-14 06:51 | 50.13703 | 8.91594 | 5577 ft | 223 kts | 252° |
| 2026-04-14 06:52 | 50.13164 | 8.89361 | 5318 ft | 218 kts | 252° |
| 2026-04-14 06:52 | 50.12642 | 8.87181 | 5091 ft | 211 kts | 252° |
| 2026-04-14 06:52 | 50.12142 | 8.85083 | 5004 ft | 205 kts | 253° |
| 2026-04-14 06:52 | 50.11654 | 8.83031 | 4716 ft | 198 kts | 253° |
| 2026-04-14 06:53 | 50.11181 | 8.81044 | 4428 ft | 195 kts | 253° |
| 2026-04-14 06:53 | 50.10712 | 8.79071 | 4122 ft | 194 kts | 253° |
| 2026-04-14 06:53 | 50.10242 | 8.77098 | 3851 ft | 194 kts | 253° |
| 2026-04-14 06:53 | 50.09773 | 8.75131 | 3571 ft | 195 kts | 253° |
| 2026-04-14 06:54 | 50.09300 | 8.73141 | 3289 ft | 196 kts | 254° |
| 2026-04-14 06:54 | 50.08830 | 8.71171 | 2986 ft | 190 kts | 253° |
| 2026-04-14 06:54 | 50.08382 | 8.69303 | 2722 ft | 177 kts | 254° |
| 2026-04-14 06:54 | 50.07966 | 8.67556 | 2462 ft | 169 kts | 255° |
| 2026-04-14 06:55 | 50.07562 | 8.65853 | 2209 ft | 164 kts | 254° |
| 2026-04-14 06:55 | 50.07179 | 8.64253 | 1993 ft | 152 kts | 254° |
| 2026-04-14 06:55 | 50.06822 | 8.62752 | 1788 ft | 147 kts | 254° |
| 2026-04-14 06:55 | 50.06465 | 8.61251 | 1549 ft | 147 kts | 253° |
| 2026-04-14 06:56 | 50.06116 | 8.59779 | 1307 ft | 143 kts | 254° |
| 2026-04-14 06:56 | 50.05784 | 8.58348 | 1088 ft | 138 kts | 251° |
| 2026-04-14 06:56 | 50.05448 | 8.56970 | 923 ft | 137 kts | 250° |
| 2026-04-14 06:56 | 50.05104 | 8.55556 | 710 ft | 141 kts | 252° |
| 2026-04-14 06:57 | 50.04763 | 8.54124 | 511 ft | 141 kts | 252° |
| 2026-04-14 06:57 | 50.04421 | 8.52705 | 364 ft | 137 kts | 252° |
| 2026-04-14 06:57 | 50.04135 | 8.51503 | 336 ft | 74 kts | 249° |
| 2026-04-14 06:57 | 50.04013 | 8.51085 | 329 ft | 29 kts | 234° |
| 2026-04-14 06:58 | 50.03887 | 8.50891 | 327 ft | 16 kts | 219° |
| 2026-04-14 06:58 | 50.03793 | 8.50860 | 332 ft | 14 kts | 138° |
| 2026-04-14 06:58 | 50.03746 | 8.50989 | 350 ft | 14 kts | 116° |
| 2026-04-14 06:58 | 50.03704 | 8.51123 | 350 ft | 14 kts | 116° |
| 2026-04-14 06:59 | 50.03654 | 8.51281 | 357 ft | 24 kts | 116° |
| 2026-04-14 06:59 | 50.03576 | 8.51526 | 368 ft | 23 kts | 117° |
| 2026-04-14 06:59 | 50.03515 | 8.51728 | 365 ft | 19 kts | 105° |
| 2026-04-14 06:59 | 50.03522 | 8.51938 | 357 ft | 21 kts | 83° |
| 2026-04-14 07:00 | 50.03542 | 8.52185 | 349 ft | 25 kts | 82° |
| 2026-04-14 07:00 | 50.03575 | 8.52412 | 350 ft | 21 kts | 69° |
| 2026-04-14 07:00 | 50.03599 | 8.52629 | 345 ft | 21 kts | 79° |
| 2026-04-14 07:00 | 50.03631 | 8.52810 | 352 ft | 15 kts | 95° |
| 2026-04-14 07:01 | 50.03585 | 8.52938 | 351 ft | 14 kts | 94° |
| 2026-04-14 07:01 | 50.03611 | 8.53084 | 355 ft | 14 kts | 68° |
| 2026-04-14 07:01 | 50.03646 | 8.53227 | 352 ft | 14 kts | 70° |
| 2026-04-14 07:01 | 50.03680 | 8.53370 | 355 ft | 14 kts | 69° |
| 2026-04-14 07:02 | 50.03713 | 8.53507 | 355 ft | 11 kts | 69° |
| 2026-04-14 07:02 | 50.03760 | 8.53526 | 356 ft | 7 kts | 348° |
| 2026-04-14 07:02 | 50.03800 | 8.53506 | 354 ft | 2 kts | 340° |
| 2026-04-14 07:02 | 50.03812 | 8.53499 | 353 ft | 1 kts | 340° |